createdAt,value
2023-05-08T00:01:42.059Z,0.50
2023-05-08T00:04:10.383Z,0.20
2023-05-08T00:06:39.902Z,0.30
2023-05-08T00:09:07.514Z,0.53
2023-05-08T00:11:35.164Z,0.50
2023-05-08T00:14:02.831Z,0.20
2023-05-08T00:16:30.728Z,0.30
2023-05-08T00:18:58.373Z,0.50
2023-05-08T00:21:25.985Z,0.23
2023-05-08T00:23:54.857Z,0.30
2023-05-08T00:26:22.509Z,0.20
2023-05-08T00:28:50.870Z,0.20
2023-05-08T00:31:18.449Z,0.32
2023-05-08T00:33:46.183Z,0.40
2023-05-08T00:36:15.766Z,0.20
2023-05-08T00:38:43.316Z,0.32
2023-05-08T00:41:12.255Z,0.30
2023-05-08T00:43:40.238Z,0.30
2023-05-08T00:46:09.809Z,0.40
2023-05-08T00:48:37.521Z,0.22
2023-05-08T00:51:06.328Z,0.20
2023-05-08T00:53:36.949Z,0.40
2023-05-08T00:56:04.849Z,0.25
2023-05-08T00:58:34.204Z,0.30
2023-05-08T01:01:01.953Z,0.40
2023-05-08T01:03:29.866Z,0.25
2023-05-08T01:05:58.214Z,0.30
2023-05-08T01:08:26.290Z,0.25
2023-05-08T01:10:59.171Z,0.30
2023-05-08T01:13:30.324Z,0.28
2023-05-08T01:16:04.015Z,0.60
2023-05-08T01:18:35.798Z,0.30
2023-05-08T01:21:07.676Z,0.20
2023-05-08T01:23:58.312Z,0.33
2023-05-08T01:26:43.349Z,0.22
2023-05-08T01:29:22.717Z,0.30
2023-05-08T01:31:59.586Z,0.60
2023-05-08T01:34:33.621Z,0.52
2023-05-08T01:37:03.000Z,0.27
2023-05-08T01:39:35.382Z,0.63
2023-05-08T01:42:05.952Z,0.30
2023-05-08T01:44:36.226Z,0.40
2023-05-08T01:47:07.620Z,0.20
2023-05-08T01:49:39.693Z,0.30
2023-05-08T01:52:09.227Z,0.40
2023-05-08T01:54:40.485Z,0.40
2023-05-08T01:57:10.544Z,0.38
2023-05-08T01:59:39.452Z,0.30
2023-05-08T02:02:07.410Z,0.40
2023-05-08T02:04:35.782Z,0.30
2023-05-08T02:07:05.680Z,0.30
2023-05-08T02:09:33.507Z,0.40
2023-05-08T02:12:03.075Z,0.38
2023-05-08T02:14:31.768Z,0.40
2023-05-08T02:17:00.669Z,0.38
2023-05-08T02:19:30.278Z,0.50
2023-05-08T02:21:59.401Z,0.38
2023-05-08T02:24:28.322Z,0.30
2023-05-08T02:26:57.152Z,0.77
2023-05-08T02:29:25.148Z,0.40
2023-05-08T02:31:54.168Z,0.28
2023-05-08T02:34:23.439Z,0.47
2023-05-08T02:36:53.253Z,0.35
2023-05-08T02:39:21.821Z,0.27
2023-05-08T02:41:50.770Z,0.50
2023-05-08T02:44:18.453Z,0.30
2023-05-08T02:46:49.050Z,0.50
2023-05-08T02:49:24.047Z,0.35
2023-05-08T02:51:54.882Z,0.40
2023-05-08T02:54:25.132Z,0.50
2023-05-08T02:56:57.992Z,0.30
2023-05-08T02:59:29.669Z,0.40
2023-05-08T03:02:00.605Z,0.35
2023-05-08T03:04:31.020Z,0.40
2023-05-08T03:06:59.303Z,0.30
2023-05-08T03:09:28.870Z,0.60
2023-05-08T03:12:13.899Z,0.40
2023-05-08T03:14:44.493Z,0.38
2023-05-08T03:17:14.434Z,0.30
2023-05-08T03:19:43.126Z,0.32
2023-05-08T03:22:11.211Z,0.70
2023-05-08T03:24:39.681Z,0.57
2023-05-08T03:27:09.972Z,0.30
2023-05-08T03:29:37.660Z,0.40
2023-05-08T03:32:06.348Z,0.30
2023-05-08T03:34:34.580Z,0.30
2023-05-08T03:37:02.231Z,0.30
2023-05-08T03:39:29.828Z,0.30
2023-05-08T03:41:58.133Z,0.20
2023-05-08T03:44:27.130Z,0.50
2023-05-08T03:46:58.038Z,0.35
2023-05-08T03:49:26.789Z,0.20
2023-05-08T03:51:54.977Z,0.38
2023-05-08T03:54:25.662Z,0.33
2023-05-08T03:56:54.717Z,0.30
2023-05-08T03:59:39.462Z,0.30
2023-05-08T04:02:13.807Z,0.40
2023-05-08T04:04:42.315Z,0.40
2023-05-08T04:07:11.942Z,0.40
2023-05-08T04:09:44.479Z,0.30
2023-05-08T04:12:15.991Z,0.30
2023-05-08T04:14:49.045Z,0.20
2023-05-08T04:17:18.885Z,0.22
2023-05-08T04:19:47.860Z,0.20
2023-05-08T04:22:16.057Z,0.30
2023-05-08T04:24:45.477Z,0.30
2023-05-08T04:27:13.542Z,0.30
2023-05-08T04:29:42.204Z,0.30
2023-05-08T04:32:11.476Z,0.33
2023-05-08T04:34:39.501Z,0.20
2023-05-08T04:37:08.210Z,0.30
2023-05-08T04:39:35.804Z,0.30
2023-05-08T04:42:04.789Z,0.20
2023-05-08T04:44:32.491Z,0.20
2023-05-08T04:47:00.210Z,0.22
2023-05-08T04:49:29.155Z,0.30
2023-05-08T04:51:56.840Z,0.30
2023-05-08T04:54:24.649Z,0.30
2023-05-08T04:56:53.625Z,0.30
2023-05-08T04:59:21.358Z,0.30
2023-05-08T05:01:48.993Z,0.22
2023-05-08T05:04:16.553Z,0.30
2023-05-08T05:06:45.738Z,0.30
2023-05-08T05:09:13.403Z,0.20
2023-05-08T05:11:41.017Z,0.50
2023-05-08T05:14:08.750Z,0.28
2023-05-08T05:16:36.405Z,0.20
2023-05-08T05:19:04.786Z,0.40
2023-05-08T05:21:32.468Z,0.37
2023-05-08T05:24:01.434Z,0.30
2023-05-08T05:26:28.983Z,0.40
2023-05-08T05:28:56.701Z,0.22
2023-05-08T05:31:24.429Z,0.30
2023-05-08T05:33:52.053Z,0.20
2023-05-08T05:36:19.706Z,0.35
2023-05-08T05:38:47.350Z,0.30
2023-05-08T05:41:16.384Z,0.43
2023-05-08T05:43:44.061Z,0.30
2023-05-08T05:46:12.016Z,0.30
2023-05-08T05:48:39.583Z,0.20
2023-05-08T05:51:07.164Z,0.30
2023-05-08T05:53:34.738Z,0.20
2023-05-08T05:56:02.702Z,0.40
2023-05-08T05:58:31.898Z,0.30
2023-05-08T06:01:00.975Z,0.40
2023-05-08T06:03:28.871Z,0.30
2023-05-08T06:05:56.793Z,0.20
2023-05-08T06:08:24.428Z,0.32
2023-05-08T06:10:51.999Z,0.50
2023-05-08T06:13:20.208Z,0.25
2023-05-08T06:15:50.504Z,0.60
2023-05-08T06:18:18.150Z,0.30
2023-05-08T06:20:45.787Z,0.35
2023-05-08T06:23:13.465Z,0.30
2023-05-08T06:25:43.008Z,0.20
2023-05-08T06:28:10.604Z,0.50
2023-05-08T06:30:38.296Z,0.52
2023-05-08T06:33:07.962Z,0.40
2023-05-08T06:35:36.140Z,0.27
2023-05-08T06:38:04.180Z,0.60
2023-05-08T06:40:31.687Z,0.50
2023-05-08T06:42:59.354Z,0.30
2023-05-08T06:45:27.119Z,0.50
2023-05-08T06:47:55.142Z,0.40
2023-05-08T06:50:24.746Z,0.40
2023-05-08T06:52:52.460Z,0.73
2023-05-08T06:55:20.281Z,0.30
2023-05-08T06:57:48.048Z,0.45
2023-05-08T07:00:16.450Z,0.40
2023-05-08T07:02:44.301Z,0.38
2023-05-08T07:05:12.454Z,0.80
2023-05-08T07:07:42.722Z,0.38
2023-05-08T07:10:11.083Z,0.40
2023-05-08T07:12:39.079Z,0.50
2023-05-08T07:15:17.785Z,0.35
2023-05-08T07:17:52.903Z,0.57
2023-05-08T07:20:21.626Z,0.60
2023-05-08T07:22:50.754Z,0.35
2023-05-08T07:25:18.453Z,0.63
2023-05-08T07:27:46.124Z,0.50
2023-05-08T07:30:14.008Z,0.60
2023-05-08T07:32:43.377Z,0.28
2023-05-08T07:35:13.712Z,0.70
2023-05-08T07:37:42.311Z,0.40
2023-05-08T07:40:11.892Z,0.35
2023-05-08T07:42:40.271Z,0.50
2023-05-08T07:45:08.754Z,0.38
2023-05-08T07:47:36.952Z,0.40
2023-05-08T07:50:05.666Z,0.40
2023-05-08T07:52:33.367Z,0.40
2023-05-08T07:55:00.955Z,0.40
2023-05-08T07:57:36.765Z,0.57
2023-05-08T08:00:05.582Z,0.30
2023-05-08T08:02:33.319Z,0.50
2023-05-08T08:05:01.136Z,0.30
2023-05-08T08:07:28.741Z,0.30
2023-05-08T08:09:56.496Z,0.38
2023-05-08T08:12:24.055Z,0.40
2023-05-08T08:14:53.287Z,0.30
2023-05-08T08:17:21.238Z,0.25
2023-05-08T08:19:49.935Z,0.30
2023-05-08T08:22:18.271Z,0.20
2023-05-08T08:24:45.859Z,0.30
2023-05-08T08:27:13.454Z,0.20
2023-05-08T08:29:41.400Z,0.30
2023-05-08T08:32:10.814Z,0.40
2023-05-08T08:34:38.604Z,0.20
2023-05-08T08:37:07.020Z,0.30
2023-05-08T08:39:35.088Z,0.20
2023-05-08T08:42:03.848Z,0.20
2023-05-08T08:44:31.582Z,0.20
2023-05-08T08:47:00.102Z,0.40
2023-05-08T08:49:31.973Z,0.20
2023-05-08T08:52:02.563Z,0.30
2023-05-08T08:54:31.833Z,0.20
2023-05-08T08:57:01.240Z,0.30
2023-05-08T08:59:29.763Z,0.20
2023-05-08T09:01:58.400Z,0.30
2023-05-08T09:04:27.425Z,0.30
2023-05-08T09:06:58.187Z,0.30
2023-05-08T09:09:26.136Z,0.40
2023-05-08T09:11:53.728Z,0.30
2023-05-08T09:14:21.856Z,0.30
2023-05-08T09:16:49.544Z,0.20
2023-05-08T09:19:17.616Z,0.30
2023-05-08T09:21:45.544Z,0.30
2023-05-08T09:24:15.179Z,0.50
2023-05-08T09:26:43.032Z,0.30
2023-05-08T09:29:11.546Z,0.30
2023-05-08T09:31:40.670Z,0.20
2023-05-08T09:34:08.795Z,0.35
2023-05-08T09:36:36.490Z,0.40
2023-05-08T09:39:04.548Z,0.30
2023-05-08T09:41:33.590Z,0.20
2023-05-08T09:44:01.996Z,0.30
2023-05-08T09:46:30.005Z,0.45
2023-05-08T09:48:58.192Z,0.30
2023-05-08T09:51:26.442Z,0.30
2023-05-08T09:53:54.360Z,0.20
2023-05-08T09:56:33.804Z,0.30
2023-05-08T09:59:02.779Z,0.25
2023-05-08T10:01:31.054Z,0.30
2023-05-08T10:03:58.972Z,0.20
2023-05-08T10:06:28.375Z,0.20
2023-05-08T10:09:09.167Z,0.28
2023-05-08T10:11:38.882Z,0.45
2023-05-08T10:14:06.422Z,0.13
2023-05-08T10:16:37.975Z,0.30
2023-05-08T10:19:09.651Z,0.30
2023-05-08T10:21:38.269Z,0.30
2023-05-08T10:24:07.671Z,0.30
2023-05-08T10:26:38.083Z,0.30
2023-05-08T10:29:08.587Z,0.30
2023-05-08T10:31:37.170Z,0.40
2023-05-08T10:34:05.073Z,0.30
2023-05-08T10:36:33.579Z,0.47
2023-05-08T10:39:02.510Z,0.28
2023-05-08T10:41:31.493Z,0.47
2023-05-08T10:44:03.057Z,0.30
2023-05-08T10:46:37.652Z,0.20
2023-05-08T10:49:14.228Z,0.40
2023-05-08T10:51:45.379Z,0.20
2023-05-08T10:54:14.842Z,0.30
2023-05-08T10:56:42.590Z,0.20
2023-05-08T10:59:18.401Z,0.35
2023-05-08T11:01:50.232Z,0.35
2023-05-08T11:04:21.928Z,0.30
2023-05-08T11:06:53.214Z,0.40
2023-05-08T11:09:24.425Z,0.30
2023-05-08T11:11:56.408Z,0.30
2023-05-08T11:14:24.197Z,0.30
2023-05-08T11:17:06.028Z,0.30
2023-05-08T11:19:33.735Z,0.38
2023-05-08T11:22:17.581Z,0.57
2023-05-08T11:24:53.890Z,0.30
2023-05-08T11:27:32.796Z,0.30
2023-05-08T11:30:15.299Z,0.32
2023-05-08T11:33:02.728Z,0.30
2023-05-08T11:35:45.557Z,0.20
2023-05-08T11:38:15.753Z,0.30
2023-05-08T11:40:46.961Z,0.30
2023-05-08T11:43:21.532Z,0.20
2023-05-08T11:45:49.410Z,0.20
2023-05-08T11:48:17.552Z,0.40
2023-05-08T11:50:47.790Z,0.20
2023-05-08T11:53:15.929Z,0.50
2023-05-08T11:55:43.553Z,0.20
2023-05-08T11:58:14.563Z,0.30
2023-05-08T12:00:44.535Z,0.30
2023-05-08T12:03:13.815Z,0.20
2023-05-08T12:05:42.210Z,0.40
2023-05-08T12:08:12.680Z,0.20
2023-05-08T12:10:41.050Z,0.32
2023-05-08T12:13:18.832Z,0.23
2023-05-08T12:15:46.590Z,0.40
2023-05-08T12:18:14.219Z,0.30
2023-05-08T12:20:42.220Z,0.40
2023-05-08T12:23:11.244Z,0.40
2023-05-08T12:25:38.984Z,0.30
2023-05-08T12:28:07.838Z,0.32
2023-05-08T12:30:35.755Z,0.38
2023-05-08T12:33:04.559Z,0.30
2023-05-08T12:35:32.597Z,0.40
2023-05-08T12:38:02.042Z,0.30
2023-05-08T12:40:32.421Z,0.20
2023-05-08T12:43:02.190Z,0.40
2023-05-08T12:45:30.863Z,0.43
2023-05-08T12:48:03.394Z,0.40
2023-05-08T12:50:34.755Z,0.33
2023-05-08T12:53:06.770Z,0.40
2023-05-08T12:55:36.510Z,0.50
2023-05-08T12:58:05.511Z,0.32
2023-05-08T13:00:38.158Z,0.50
2023-05-08T13:03:06.070Z,0.40
2023-05-08T13:05:33.701Z,0.30
2023-05-08T13:08:02.842Z,0.30
2023-05-08T13:10:51.512Z,0.30
2023-05-08T13:13:20.924Z,0.40
2023-05-08T13:15:49.154Z,0.50
2023-05-08T13:18:17.274Z,0.35
2023-05-08T13:20:45.195Z,0.50
2023-05-08T13:23:13.403Z,0.50
2023-05-08T13:25:42.120Z,0.40
2023-05-08T13:28:11.422Z,0.30
2023-05-08T13:30:39.065Z,0.30
2023-05-08T13:33:07.042Z,0.32
2023-05-08T13:35:35.683Z,0.52
2023-05-08T13:38:03.977Z,0.30
2023-05-08T13:40:31.528Z,0.33
2023-05-08T13:42:59.835Z,0.30
2023-05-08T13:45:28.934Z,0.30
2023-05-08T13:47:56.578Z,0.30
2023-05-08T13:50:25.777Z,0.30
2023-05-08T13:52:54.988Z,0.40
2023-05-08T13:55:23.474Z,0.40
2023-05-08T13:57:51.682Z,0.30
2023-05-08T14:00:19.593Z,0.20
2023-05-08T14:02:50.667Z,0.20
2023-05-08T14:05:20.120Z,0.27
2023-05-08T14:07:47.801Z,0.35
2023-05-08T14:10:16.986Z,0.30
2023-05-08T14:12:44.983Z,0.20
2023-05-08T14:15:12.727Z,0.40
2023-05-08T14:17:41.885Z,0.20
2023-05-08T14:20:12.179Z,0.30
2023-05-08T14:22:39.822Z,0.30
2023-05-08T14:25:08.117Z,0.32
2023-05-08T14:27:35.859Z,0.20
2023-05-08T14:30:03.609Z,0.20
2023-05-08T14:32:31.207Z,0.30
2023-05-08T14:34:59.147Z,0.32
2023-05-08T14:37:28.029Z,0.40
2023-05-08T14:39:57.731Z,0.50
2023-05-08T14:42:26.105Z,0.30
2023-05-08T14:44:56.086Z,0.30
2023-05-08T14:47:24.446Z,0.50
2023-05-08T14:49:53.740Z,0.40
2023-05-08T14:52:21.500Z,0.30
2023-05-08T14:54:53.802Z,0.53
2023-05-08T14:57:22.088Z,0.40
2023-05-08T14:59:55.145Z,0.65
2023-05-08T15:02:23.546Z,0.47
2023-05-08T15:04:55.004Z,0.45
2023-05-08T15:07:22.726Z,0.40
2023-05-08T15:09:53.441Z,0.50
2023-05-08T15:12:21.396Z,0.40
2023-05-08T15:14:49.290Z,0.60
2023-05-08T15:17:17.811Z,0.40
2023-05-08T15:19:45.788Z,0.20
2023-05-08T15:22:13.370Z,0.30
2023-05-08T15:24:41.159Z,0.63
2023-05-08T15:27:11.708Z,0.60
2023-05-08T15:29:39.804Z,0.45
2023-05-08T15:32:07.747Z,0.67
2023-05-08T15:34:35.417Z,0.30
2023-05-08T15:37:03.006Z,0.40
2023-05-08T15:39:31.239Z,0.32
2023-05-08T15:41:58.943Z,0.40
2023-05-08T15:44:41.646Z,0.30
2023-05-08T15:47:16.057Z,0.32
2023-05-08T15:49:43.683Z,0.30
2023-05-08T15:52:11.226Z,0.20
2023-05-08T15:54:38.897Z,0.40
2023-05-08T15:57:06.606Z,0.50
2023-05-08T15:59:37.755Z,0.40
2023-05-08T16:02:05.741Z,0.30
2023-05-08T16:04:33.563Z,0.20
2023-05-08T16:07:01.606Z,0.40
2023-05-08T16:09:29.646Z,0.33
2023-05-08T16:11:57.368Z,0.30
2023-05-08T16:14:25.009Z,0.45
2023-05-08T16:16:54.598Z,0.30
2023-05-08T16:19:23.956Z,0.40
2023-05-08T16:21:51.782Z,0.30
2023-05-08T16:24:19.771Z,0.38
2023-05-08T16:26:47.474Z,0.30
2023-05-08T16:29:15.178Z,0.30
2023-05-08T16:31:42.887Z,0.50
2023-05-08T16:34:12.133Z,0.40
2023-05-08T16:36:39.844Z,0.43
2023-05-08T16:39:08.413Z,0.50
2023-05-08T16:41:35.967Z,0.40
2023-05-08T16:44:03.651Z,0.22
2023-05-08T16:46:31.352Z,0.30
2023-05-08T16:48:58.975Z,0.20
2023-05-08T16:51:27.909Z,0.40
2023-05-08T16:53:57.361Z,0.40
2023-05-08T16:56:25.696Z,0.28
2023-05-08T16:58:53.366Z,0.33
2023-05-08T17:01:21.050Z,0.30
2023-05-08T17:03:48.681Z,0.38
2023-05-08T17:06:16.442Z,0.32
2023-05-08T17:08:45.501Z,0.50
2023-05-08T17:11:12.998Z,0.30
2023-05-08T17:13:43.061Z,0.30
2023-05-08T17:16:10.649Z,0.30
2023-05-08T17:18:38.275Z,0.40
2023-05-08T17:21:05.997Z,0.40
2023-05-08T17:23:33.615Z,0.40
2023-05-08T17:26:02.506Z,0.30
2023-05-08T17:28:30.236Z,0.52
2023-05-08T17:30:58.648Z,0.30
2023-05-08T17:33:26.480Z,0.60
2023-05-08T17:35:54.104Z,0.40
2023-05-08T17:38:21.745Z,0.50
2023-05-08T17:40:49.364Z,0.30
2023-05-08T17:43:20.629Z,0.43
2023-05-08T17:45:48.571Z,0.30
2023-05-08T17:48:16.155Z,0.40
2023-05-08T17:50:45.722Z,0.30
2023-05-08T17:53:13.504Z,0.30
2023-05-08T17:55:41.183Z,0.30
2023-05-08T17:58:08.958Z,0.40
2023-05-08T18:00:38.486Z,0.40
2023-05-08T18:03:06.146Z,0.43
2023-05-08T18:05:33.872Z,0.30
2023-05-08T18:08:02.039Z,0.35
2023-05-08T18:10:29.738Z,0.32
2023-05-08T18:12:57.474Z,0.20
2023-05-08T18:15:25.236Z,0.30
2023-05-08T18:17:54.558Z,0.40
2023-05-08T18:20:22.186Z,0.20
2023-05-08T18:22:49.789Z,0.30
2023-05-08T18:25:17.453Z,0.30
2023-05-08T18:27:47.269Z,0.22
2023-05-08T18:30:15.419Z,0.30
2023-05-08T18:32:46.007Z,0.30
2023-05-08T18:35:17.970Z,0.30
2023-05-08T18:37:45.541Z,0.60
2023-05-08T18:40:13.704Z,0.30
2023-05-08T18:42:41.684Z,0.30
2023-05-08T18:45:09.971Z,0.20
2023-05-08T18:47:37.532Z,0.30
2023-05-08T18:50:06.424Z,0.20
2023-05-08T18:52:35.482Z,0.30
2023-05-08T18:55:02.997Z,0.30
2023-05-08T18:57:30.633Z,0.20
2023-05-08T18:59:58.372Z,0.35
2023-05-08T19:02:27.939Z,0.23
2023-05-08T19:04:55.927Z,0.30
2023-05-08T19:07:23.434Z,0.20
2023-05-08T19:09:52.309Z,0.50
2023-05-08T19:12:20.086Z,0.30
2023-05-08T19:14:49.057Z,0.30
2023-05-08T19:17:16.636Z,0.40
2023-05-08T19:19:44.639Z,0.40
2023-05-08T19:22:12.308Z,0.25
2023-05-08T19:24:40.250Z,0.30
2023-05-08T19:27:09.427Z,0.30
2023-05-08T19:29:36.927Z,0.30
2023-05-08T19:32:04.819Z,0.50
2023-05-08T19:34:33.117Z,0.20
2023-05-08T19:37:00.662Z,0.30
2023-05-08T19:39:28.335Z,0.20
2023-05-08T19:41:56.568Z,0.22
2023-05-08T19:44:25.972Z,0.20
2023-05-08T19:46:54.697Z,0.30
2023-05-08T19:49:22.955Z,0.30
2023-05-08T19:51:51.612Z,0.40
2023-05-08T19:54:19.289Z,0.30
2023-05-08T19:56:47.802Z,0.50
2023-05-08T19:59:16.197Z,0.20
2023-05-08T20:01:45.298Z,0.38
2023-05-08T20:04:13.154Z,0.20
2023-05-08T20:06:40.752Z,0.40
2023-05-08T20:09:08.535Z,0.35
2023-05-08T20:11:36.376Z,0.70
2023-05-08T20:14:03.891Z,0.95
2023-05-08T20:16:31.515Z,0.90
2023-05-08T20:19:01.804Z,0.77
2023-05-08T20:21:32.409Z,0.70
2023-05-08T20:24:00.191Z,0.60
2023-05-08T20:26:28.865Z,0.90
2023-05-08T20:28:56.544Z,0.70
2023-05-08T20:31:25.735Z,0.55
2023-05-08T20:33:53.646Z,0.40
2023-05-08T20:36:22.814Z,0.68
2023-05-08T20:38:51.267Z,0.50
2023-05-08T20:41:18.842Z,0.40
2023-05-08T20:43:46.958Z,0.52
2023-05-08T20:46:14.573Z,0.60
2023-05-08T20:48:42.226Z,0.30
2023-05-08T20:51:09.742Z,0.47
2023-05-08T20:53:40.108Z,0.47
2023-05-08T20:56:07.822Z,0.50
2023-05-08T20:58:35.576Z,0.50
2023-05-08T21:01:03.487Z,0.40
2023-05-08T21:03:31.201Z,0.28
2023-05-08T21:05:59.155Z,0.53
2023-05-08T21:08:27.477Z,0.40
2023-05-08T21:10:56.780Z,0.50
2023-05-08T21:13:25.169Z,0.30
2023-05-08T21:15:53.183Z,0.40
2023-05-08T21:18:20.949Z,0.30
2023-05-08T21:20:50.642Z,0.55
2023-05-08T21:23:18.412Z,0.50
2023-05-08T21:25:47.120Z,0.50
2023-05-08T21:28:16.376Z,0.77
2023-05-08T21:30:44.023Z,0.80
2023-05-08T21:33:13.796Z,0.63
2023-05-08T21:35:41.984Z,0.68
2023-05-08T21:38:11.904Z,0.52
2023-05-08T21:40:40.111Z,0.90
2023-05-08T21:43:07.772Z,0.50
2023-05-08T21:45:36.827Z,0.70
2023-05-08T21:48:04.783Z,0.80
2023-05-08T21:50:32.322Z,0.60
2023-05-08T21:52:59.945Z,1.15
2023-05-08T21:55:27.585Z,0.83
2023-05-08T21:57:55.109Z,0.82
2023-05-08T22:00:22.968Z,1.00
2023-05-08T22:02:52.148Z,0.65
2023-05-08T22:05:19.752Z,0.50
2023-05-08T22:07:47.713Z,0.73
2023-05-08T22:10:21.932Z,0.93
2023-05-08T22:12:50.668Z,0.90
2023-05-08T22:15:29.110Z,0.73
2023-05-08T22:17:59.910Z,0.80
2023-05-08T22:20:27.562Z,0.70
2023-05-08T22:22:55.203Z,0.90
2023-05-08T22:25:23.124Z,0.80
2023-05-08T22:27:50.719Z,1.10
2023-05-08T22:30:18.244Z,1.00
2023-05-08T22:32:47.529Z,0.70
2023-05-08T22:35:17.806Z,0.85
2023-05-08T22:37:46.002Z,1.08
2023-05-08T22:40:14.260Z,1.00
2023-05-08T22:42:41.799Z,1.25
2023-05-08T22:45:10.216Z,0.97
2023-05-08T22:47:38.071Z,1.38
2023-05-08T22:50:08.597Z,1.20
2023-05-08T22:52:37.571Z,1.20
2023-05-08T22:55:05.827Z,1.20
2023-05-08T22:57:33.535Z,1.60
2023-05-08T23:00:01.351Z,1.45
2023-05-08T23:02:32.376Z,1.50
2023-05-08T23:05:00.061Z,1.58
2023-05-08T23:07:27.769Z,1.65
2023-05-08T23:09:56.844Z,1.70
2023-05-08T23:12:24.475Z,1.45
2023-05-08T23:14:52.888Z,1.80
2023-05-08T23:17:20.600Z,1.80
2023-05-08T23:19:48.162Z,1.63
2023-05-08T23:22:15.888Z,1.80
2023-05-08T23:24:43.517Z,1.83
2023-05-08T23:27:12.456Z,1.75
2023-05-08T23:29:40.080Z,1.75
2023-05-08T23:32:07.776Z,2.10
2023-05-08T23:34:35.511Z,1.70
2023-05-08T23:37:03.120Z,1.92
2023-05-08T23:39:31.073Z,1.60
2023-05-08T23:41:58.649Z,1.48
2023-05-08T23:44:27.581Z,1.45
2023-05-08T23:46:57.140Z,1.70
2023-05-08T23:49:25.059Z,1.98
2023-05-08T23:51:52.783Z,2.47
2023-05-08T23:54:21.073Z,2.67
2023-05-08T23:56:48.631Z,3.13
2023-05-08T23:59:16.205Z,4.07
